Time;durP1;ratioP1;P1;durP2;ratioP2;P2;SDS_P1;SDS_P2;PMS_P1;PMS_P2;Temp;Humidity;BMP_temperature;BMP_pressure;BME280_temperature;BME280_humidity;BME280_pressure;Samples;Min_cycle;Max_cycle;Signal;HPM_P1;HPM_P2
2022/03/01 00:00:27;;;;;;;18.07;11.60;;;;;;;;;;5052211;28;20734;-59
2022/03/01 00:02:53;;;;;;;17.70;11.20;;;;;;;;;;5051716;28;20207;-59
2022/03/01 00:05:18;;;;;;;16.87;11.13;;;;;;;;;;5052090;28;20571;-59
2022/03/01 00:07:43;;;;;;;18.50;11.30;;;;;;;;;;5052304;28;20211;-59
2022/03/01 00:10:09;;;;;;;18.20;11.37;;;;;;;;;;5050936;28;20219;-59
2022/03/01 00:12:34;;;;;;;18.23;11.20;;;;;;;;;;5052207;28;20226;-59
2022/03/01 00:14:59;;;;;;;17.37;11.57;;;;;;;;;;5051391;28;20220;-59
2022/03/01 00:17:25;;;;;;;16.17;10.67;;;;;;;;;;5051154;28;20251;-59
2022/03/01 00:19:50;;;;;;;17.93;11.87;;;;;;;;;;5052000;28;20539;-59
2022/03/01 00:22:15;;;;;;;18.80;11.80;;;;;;;;;;5051896;28;20305;-59
2022/03/01 00:24:41;;;;;;;16.60;11.20;;;;;;;;;;5051603;28;20207;-59
2022/03/01 00:27:06;;;;;;;19.27;11.97;;;;;;;;;;5068241;28;20271;-59
2022/03/01 00:29:31;;;;;;;18.45;11.75;;;;;;;;;;5072022;28;20218;-59
2022/03/01 00:31:57;;;;;;;17.10;11.07;;;;;;;;;;5071622;28;20230;-59
2022/03/01 00:34:22;;;;;;;20.43;12.00;;;;;;;;;;5053769;28;20213;-59
2022/03/01 00:36:47;;;;;;;20.20;11.50;;;;;;;;;;5053790;28;20206;-59
2022/03/01 00:39:13;;;;;;;17.60;11.87;;;;;;;;;;5071563;28;20281;-59
2022/03/01 00:41:38;;;;;;;23.13;11.80;;;;;;;;;;5072169;28;20569;-59
2022/03/01 00:44:03;;;;;;;16.77;12.00;;;;;;;;;;5070558;28;20210;-59
2022/03/01 00:46:29;;;;;;;20.10;12.13;;;;;;;;;;5054206;28;20252;-59
2022/03/01 00:48:54;;;;;;;18.60;12.07;;;;;;;;;;5071747;28;20209;-59
2022/03/01 00:51:19;;;;;;;18.70;11.80;;;;;;;;;;5052759;28;20231;-59
2022/03/01 00:53:44;;;;;;;19.13;12.00;;;;;;;;;;5071888;28;20246;-59
2022/03/01 00:56:10;;;;;;;19.03;12.10;;;;;;;;;;5071440;28;20234;-59
2022/03/01 00:58:35;;;;;;;16.77;11.30;;;;;;;;;;5070910;28;20222;-59
2022/03/01 01:01:00;;;;;;;18.33;11.80;;;;;;;;;;5071517;28;20206;-60
2022/03/01 01:03:26;;;;;;;20.23;12.33;;;;;;;;;;5071988;28;20617;-59
2022/03/01 01:05:51;;;;;;;19.40;12.40;;;;;;;;;;5070925;28;20214;-59
2022/03/01 01:08:16;;;;;;;20.37;12.73;;;;;;;;;;5071566;28;20684;-59
2022/03/01 01:10:41;;;;;;;21.43;12.67;;;;;;;;;;5071323;28;20227;-59
2022/03/01 01:13:06;;;;;;;18.57;11.90;;;;;;;;;;5070441;28;20202;-59
2022/03/01 01:15:32;;;;;;;19.90;12.50;;;;;;;;;;5071515;28;20670;-59
2022/03/01 01:17:57;;;;;;;19.73;12.32;;;;;;;;;;5071880;28;20210;-59
2022/03/01 01:20:22;;;;;;;18.30;12.17;;;;;;;;;;5070346;28;20605;-59
2022/03/01 01:22:48;;;;;;;18.67;12.43;;;;;;;;;;5071671;28;20211;-59
2022/03/01 01:25:13;;;;;;;18.63;12.53;;;;;;;;;;5071577;28;20206;-59
2022/03/01 01:27:40;;;;;;;19.63;12.73;;;;;;;;;;5074320;28;20245;-59
2022/03/01 01:30:06;;;;;;;18.77;12.30;;;;;;;;;;5074468;28;20206;-60
2022/03/01 01:32:31;;;;;;;18.77;12.60;;;;;;;;;;5075075;28;20642;-59
2022/03/01 01:34:57;;;;;;;19.00;11.93;;;;;;;;;;5074254;28;20213;-59
2022/03/01 01:37:22;;;;;;;21.43;12.57;;;;;;;;;;5074759;28;20272;-59
2022/03/01 01:39:47;;;;;;;18.13;11.83;;;;;;;;;;5074922;28;20245;-59
2022/03/01 01:42:13;;;;;;;18.27;11.90;;;;;;;;;;5055872;28;20218;-59
2022/03/01 01:44:38;;;;;;;19.43;12.40;;;;;;;;;;5074549;28;20211;-59
2022/03/01 01:47:03;;;;;;;17.87;12.10;;;;;;;;;;5073748;28;20205;-60
2022/03/01 01:49:28;;;;;;;17.77;11.87;;;;;;;;;;5074831;28;20206;-59
2022/03/01 01:51:54;;;;;;;21.43;12.60;;;;;;;;;;5074605;28;20218;-59
2022/03/01 01:54:19;;;;;;;16.10;11.37;;;;;;;;;;5073387;28;21074;-59
2022/03/01 01:56:44;;;;;;;19.13;11.40;;;;;;;;;;5074610;28;20210;-59
2022/03/01 01:59:09;;;;;;;20.83;11.83;;;;;;;;;;5073840;28;20210;-59
2022/03/01 02:01:35;;;;;;;20.27;12.00;;;;;;;;;;5073760;28;20213;-59
2022/03/01 02:04:00;;;;;;;17.50;11.80;;;;;;;;;;5074622;28;20665;-59
2022/03/01 02:06:26;;;;;;;19.07;12.27;;;;;;;;;;5074103;28;20218;-59
2022/03/01 02:08:51;;;;;;;19.50;12.43;;;;;;;;;;5073735;28;20213;-59
2022/03/01 02:11:17;;;;;;;17.77;12.23;;;;;;;;;;5073588;28;20654;-59
2022/03/01 02:13:42;;;;;;;18.33;11.80;;;;;;;;;;5074298;28;20731;-59
2022/03/01 02:16:08;;;;;;;17.33;11.70;;;;;;;;;;5072868;28;20293;-59
2022/03/01 02:18:33;;;;;;;17.97;13.00;;;;;;;;;;5056404;28;20232;-59
2022/03/01 02:20:58;;;;;;;21.47;12.40;;;;;;;;;;5056362;28;20214;-59
2022/03/01 02:23:23;;;;;;;17.80;11.73;;;;;;;;;;5072782;28;20337;-59
2022/03/01 02:25:49;;;;;;;20.40;11.57;;;;;;;;;;5074044;28;20202;-59
2022/03/01 02:28:14;;;;;;;17.77;11.47;;;;;;;;;;5073649;28;20321;-59
2022/03/01 02:30:39;;;;;;;16.70;11.60;;;;;;;;;;5073101;28;20235;-59
2022/03/01 02:33:04;;;;;;;20.13;11.47;;;;;;;;;;5073665;28;20210;-59
2022/03/01 02:35:30;;;;;;;17.53;12.30;;;;;;;;;;5074103;28;20203;-59
2022/03/01 02:37:55;;;;;;;18.83;11.93;;;;;;;;;;5072479;28;20633;-59
2022/03/01 02:40:20;;;;;;;23.10;11.77;;;;;;;;;;5073508;28;20214;-59
2022/03/01 02:42:46;;;;;;;19.57;11.80;;;;;;;;;;5073673;28;20294;-59
2022/03/01 02:45:14;;;;;;;19.93;12.00;;;;;;;;;;5072347;28;20275;-59
2022/03/01 02:47:39;;;;;;;20.30;11.87;;;;;;;;;;5055751;28;20213;-59
2022/03/01 02:50:05;;;;;;;18.07;11.97;;;;;;;;;;5073460;28;20608;-59
2022/03/01 02:52:31;;;;;;;18.17;11.53;;;;;;;;;;5066530;28;20227;-59
2022/03/01 02:54:56;;;;;;;16.63;11.70;;;;;;;;;;5062321;28;20219;-59
2022/03/01 02:57:21;;;;;;;19.10;11.40;;;;;;;;;;5052390;28;20215;-59
2022/03/01 02:59:47;;;;;;;17.13;11.60;;;;;;;;;;5053596;28;20675;-59
2022/03/01 03:02:15;;;;;;;20.40;12.50;;;;;;;;;;5052784;28;20682;-59
2022/03/01 03:04:41;;;;;;;18.80;12.63;;;;;;;;;;5052738;28;20638;-59
2022/03/01 03:07:06;;;;;;;19.37;12.27;;;;;;;;;;5053027;28;20693;-60
2022/03/01 03:09:31;;;;;;;20.80;12.07;;;;;;;;;;5053255;28;20211;-59
2022/03/01 03:11:57;;;;;;;18.63;11.90;;;;;;;;;;5052315;28;20310;-59
2022/03/01 03:14:22;;;;;;;17.80;11.63;;;;;;;;;;5052620;28;20634;-59
2022/03/01 03:16:47;;;;;;;19.60;12.17;;;;;;;;;;5053078;28;20199;-59
2022/03/01 03:19:15;;;;;;;19.77;12.43;;;;;;;;;;5052160;28;20203;-59
2022/03/01 03:21:40;;;;;;;18.37;11.60;;;;;;;;;;5053315;28;20306;-59
2022/03/01 03:24:06;;;;;;;19.30;12.03;;;;;;;;;;5052502;28;20297;-59
2022/03/01 03:26:31;;;;;;;17.97;12.13;;;;;;;;;;5063771;28;20293;-59
2022/03/01 03:28:56;;;;;;;17.50;11.93;;;;;;;;;;5072995;28;20225;-59
2022/03/01 03:31:22;;;;;;;17.87;11.90;;;;;;;;;;5072844;28;20731;-59
2022/03/01 03:33:47;;;;;;;18.00;11.13;;;;;;;;;;5072069;28;20199;-59
2022/03/01 03:36:12;;;;;;;17.07;11.13;;;;;;;;;;5072329;28;20219;-59
2022/03/01 03:38:38;;;;;;;19.33;12.10;;;;;;;;;;5072777;28;20203;-59
2022/03/01 03:41:03;;;;;;;18.30;12.70;;;;;;;;;;5071326;28;20238;-60
2022/03/01 03:43:28;;;;;;;19.03;11.80;;;;;;;;;;5072643;28;20244;-59
2022/03/01 03:45:54;;;;;;;19.53;12.10;;;;;;;;;;5072372;28;20202;-59
2022/03/01 03:48:19;;;;;;;19.97;12.17;;;;;;;;;;5053301;28;20218;-59
2022/03/01 03:50:44;;;;;;;19.97;12.10;;;;;;;;;;5072526;28;20222;-59
2022/03/01 03:53:10;;;;;;;18.90;11.33;;;;;;;;;;5071777;28;20294;-59
2022/03/01 03:55:36;;;;;;;18.30;11.33;;;;;;;;;;5071813;28;20236;-59
2022/03/01 03:58:01;;;;;;;17.97;12.50;;;;;;;;;;5072118;28;20301;-59
2022/03/01 04:00:26;;;;;;;17.17;11.40;;;;;;;;;;5072451;28;20210;-59
2022/03/01 04:02:51;;;;;;;18.97;11.80;;;;;;;;;;5071871;28;20207;-59
2022/03/01 04:05:17;;;;;;;21.20;12.33;;;;;;;;;;5072018;28;20214;-59
2022/03/01 04:07:42;;;;;;;18.30;11.90;;;;;;;;;;5072019;28;20213;-59
2022/03/01 04:10:08;;;;;;;20.57;12.50;;;;;;;;;;5071465;28;20736;-59
2022/03/01 04:12:33;;;;;;;18.03;11.97;;;;;;;;;;5072187;28;20260;-59
2022/03/01 04:14:58;;;;;;;20.33;11.93;;;;;;;;;;5071418;28;20586;-59
2022/03/01 04:17:24;;;;;;;17.03;11.60;;;;;;;;;;5071970;28;20213;-59
2022/03/01 04:19:49;;;;;;;17.00;11.63;;;;;;;;;;5071979;28;20261;-59
2022/03/01 04:22:14;;;;;;;19.83;12.27;;;;;;;;;;5071020;28;20263;-59
2022/03/01 04:24:39;;;;;;;20.97;12.57;;;;;;;;;;5072210;28;20287;-59
2022/03/01 04:27:05;;;;;;;18.30;11.83;;;;;;;;;;5071511;28;20214;-59
2022/03/01 04:29:30;;;;;;;20.27;12.50;;;;;;;;;;5071506;28;20217;-59
2022/03/01 04:31:55;;;;;;;19.93;11.93;;;;;;;;;;5072216;28;20635;-59
2022/03/01 04:34:20;;;;;;;21.00;12.23;;;;;;;;;;5071487;28;20259;-59
2022/03/01 04:36:46;;;;;;;20.97;12.87;;;;;;;;;;5071623;28;20289;-59
2022/03/01 04:39:11;;;;;;;17.20;11.87;;;;;;;;;;5071590;28;20222;-59
2022/03/01 04:41:37;;;;;;;19.93;11.97;;;;;;;;;;5072179;28;20693;-59
2022/03/01 04:44:02;;;;;;;19.50;11.47;;;;;;;;;;5070678;28;20206;-60
2022/03/01 04:46:28;;;;;;;19.87;12.53;;;;;;;;;;5072076;28;20211;-59
2022/03/01 04:48:53;;;;;;;19.17;12.43;;;;;;;;;;5071578;28;20673;-59
2022/03/01 04:51:21;;;;;;;21.63;13.10;;;;;;;;;;5070613;28;20269;-59
2022/03/01 04:53:47;;;;;;;18.40;12.33;;;;;;;;;;5071757;28;20231;-59
2022/03/01 04:56:12;;;;;;;19.67;12.70;;;;;;;;;;5071249;28;20309;-59
2022/03/01 04:58:38;;;;;;;19.67;12.50;;;;;;;;;;5070946;28;20202;-59
2022/03/01 05:01:03;;;;;;;19.17;12.43;;;;;;;;;;5073143;28;20209;-59
2022/03/01 05:03:28;;;;;;;19.10;12.43;;;;;;;;;;5075890;28;20202;-59
2022/03/01 05:05:53;;;;;;;19.53;12.80;;;;;;;;;;5074824;28;20709;-59
2022/03/01 05:08:19;;;;;;;21.07;13.17;;;;;;;;;;5075450;28;20206;-59
2022/03/01 05:10:44;;;;;;;21.77;13.27;;;;;;;;;;5075211;28;20683;-59
2022/03/01 05:13:09;;;;;;;19.30;12.83;;;;;;;;;;5074370;28;20725;-59
2022/03/01 05:15:34;;;;;;;19.67;13.30;;;;;;;;;;5075519;28;20202;-59
2022/03/01 05:18:00;;;;;;;18.57;11.80;;;;;;;;;;5074785;28;20214;-59
2022/03/01 05:20:25;;;;;;;19.00;12.30;;;;;;;;;;5074813;28;20211;-59
2022/03/01 05:22:51;;;;;;;20.73;12.70;;;;;;;;;;5075471;28;20233;-59
2022/03/01 05:25:16;;;;;;;18.53;12.27;;;;;;;;;;5073799;28;20224;-59
2022/03/01 05:27:42;;;;;;;19.50;11.63;;;;;;;;;;5075278;28;20677;-59
2022/03/01 05:30:08;;;;;;;19.50;12.50;;;;;;;;;;5056833;28;20309;-59
2022/03/01 05:32:34;;;;;;;20.37;12.50;;;;;;;;;;5074407;28;20226;-59
2022/03/01 05:34:59;;;;;;;19.87;12.60;;;;;;;;;;5074940;28;20211;-59
2022/03/01 05:37:24;;;;;;;21.00;13.73;;;;;;;;;;5074837;28;20222;-59
2022/03/01 05:39:50;;;;;;;22.03;14.17;;;;;;;;;;5073941;28;20681;-59
2022/03/01 05:42:15;;;;;;;21.83;13.20;;;;;;;;;;5074567;28;20263;-59
2022/03/01 05:44:40;;;;;;;21.93;13.90;;;;;;;;;;5075172;28;20206;-59
2022/03/01 05:47:06;;;;;;;20.30;12.43;;;;;;;;;;5055977;28;20356;-59
2022/03/01 05:49:31;;;;;;;22.17;13.20;;;;;;;;;;5074912;28;20214;-60
2022/03/01 05:51:57;;;;;;;20.83;13.17;;;;;;;;;;5074533;28;20314;-59
2022/03/01 05:54:22;;;;;;;22.50;13.40;;;;;;;;;;5073474;28;20725;-59
2022/03/01 05:56:47;;;;;;;22.23;13.80;;;;;;;;;;5074842;28;20214;-59
2022/03/01 05:59:12;;;;;;;19.90;13.33;;;;;;;;;;5074323;28;20697;-59
2022/03/01 06:01:38;;;;;;;18.87;12.80;;;;;;;;;;5074001;28;20206;-59
2022/03/01 06:04:03;;;;;;;21.07;13.50;;;;;;;;;;5074376;28;20289;-59
2022/03/01 06:06:28;;;;;;;20.57;13.47;;;;;;;;;;5074581;28;20603;-59
2022/03/01 06:08:54;;;;;;;20.27;12.83;;;;;;;;;;5073654;28;20731;-59
2022/03/01 06:11:19;;;;;;;21.00;13.50;;;;;;;;;;5073473;28;20713;-59
2022/03/01 06:13:44;;;;;;;19.83;13.17;;;;;;;;;;5073706;28;20225;-59
2022/03/01 06:16:09;;;;;;;21.27;13.37;;;;;;;;;;5073032;28;20301;-59
2022/03/01 06:18:35;;;;;;;19.43;12.67;;;;;;;;;;5074266;28;20206;-59
2022/03/01 06:21:01;;;;;;;20.23;13.30;;;;;;;;;;5056243;28;20244;-59
2022/03/01 06:23:27;;;;;;;19.07;12.97;;;;;;;;;;5073053;28;20244;-59
2022/03/01 06:25:52;;;;;;;20.40;13.30;;;;;;;;;;5056569;28;20211;-59
2022/03/01 06:28:17;;;;;;;21.87;14.10;;;;;;;;;;5073187;28;20210;-59
2022/03/01 06:30:42;;;;;;;21.67;13.80;;;;;;;;;;5073707;28;20301;-59
2022/03/01 06:33:08;;;;;;;22.43;13.73;;;;;;;;;;5073442;28;20214;-59
2022/03/01 06:35:33;;;;;;;22.20;14.03;;;;;;;;;;5055584;28;20229;-59
2022/03/01 06:37:58;;;;;;;19.70;12.67;;;;;;;;;;5073735;28;20256;-59
2022/03/01 06:40:24;;;;;;;19.83;13.57;;;;;;;;;;5055530;28;20218;-59
2022/03/01 06:42:49;;;;;;;21.00;13.67;;;;;;;;;;5072920;28;20364;-59
2022/03/01 06:45:14;;;;;;;21.77;14.07;;;;;;;;;;5073061;28;20244;-61
2022/03/01 06:47:40;;;;;;;23.23;13.50;;;;;;;;;;5073723;28;20229;-61
2022/03/01 06:50:05;;;;;;;20.10;13.40;;;;;;;;;;5072438;28;20689;-61
2022/03/01 06:52:32;;;;;;;22.57;15.10;;;;;;;;;;5072870;28;20870;-60
2022/03/01 06:54:57;;;;;;;21.07;13.63;;;;;;;;;;5073311;28;20642;-60
2022/03/01 06:57:22;;;;;;;24.20;14.40;;;;;;;;;;5072575;28;20210;-60
2022/03/01 06:59:48;;;;;;;20.70;13.00;;;;;;;;;;5073317;28;20233;-59
2022/03/01 07:02:13;;;;;;;21.30;13.97;;;;;;;;;;5072959;28;20218;-59
2022/03/01 07:04:38;;;;;;;19.90;12.90;;;;;;;;;;5072640;28;20618;-59
2022/03/01 07:07:05;;;;;;;24.30;13.43;;;;;;;;;;5072741;28;20221;-60
2022/03/01 07:09:30;;;;;;;23.37;13.53;;;;;;;;;;5073181;28;20603;-60
2022/03/01 07:11:56;;;;;;;22.33;12.97;;;;;;;;;;5072439;28;20309;-60
2022/03/01 07:14:21;;;;;;;21.90;14.20;;;;;;;;;;5072750;28;20198;-60
2022/03/01 07:16:46;;;;;;;20.73;12.03;;;;;;;;;;5073333;28;20238;-60
2022/03/01 07:19:12;;;;;;;19.30;12.47;;;;;;;;;;5071680;28;20704;-60
2022/03/01 07:21:37;;;;;;;18.57;11.60;;;;;;;;;;5072947;28;20267;-61
2022/03/01 07:24:02;;;;;;;18.00;12.33;;;;;;;;;;5072016;28;20206;-60
2022/03/01 07:26:28;;;;;;;21.87;11.63;;;;;;;;;;5072254;28;20210;-61
2022/03/01 07:28:53;;;;;;;18.03;11.93;;;;;;;;;;5072815;28;20757;-61
2022/03/01 07:31:18;;;;;;;19.27;11.07;;;;;;;;;;5072302;28;20230;-62
2022/03/01 07:33:44;;;;;;;18.60;11.83;;;;;;;;;;5072146;28;20210;-61
2022/03/01 07:36:09;;;;;;;19.77;12.30;;;;;;;;;;5072297;28;20215;-61
2022/03/01 07:38:34;;;;;;;17.13;11.50;;;;;;;;;;5072377;28;20206;-61
2022/03/01 07:40:59;;;;;;;18.55;12.05;;;;;;;;;;5071824;28;20275;-60
2022/03/01 07:43:25;;;;;;;16.77;11.40;;;;;;;;;;5072302;28;20222;-60
2022/03/01 07:45:50;;;;;;;17.60;11.80;;;;;;;;;;5071923;28;20217;-60
2022/03/01 07:48:15;;;;;;;18.47;11.70;;;;;;;;;;5072028;28;20214;-60
2022/03/01 07:50:40;;;;;;;19.57;12.43;;;;;;;;;;5071469;28;20230;-60
2022/03/01 07:53:06;;;;;;;19.07;11.43;;;;;;;;;;5070849;28;20666;-60
2022/03/01 07:55:31;;;;;;;17.63;12.00;;;;;;;;;;5052505;28;20701;-60
2022/03/01 07:57:56;;;;;;;18.07;11.37;;;;;;;;;;5052368;28;20226;-60
2022/03/01 08:00:24;;;;;;;21.27;12.10;;;;;;;;;;5050853;28;20210;-60
2022/03/01 08:02:49;;;;;;;17.53;11.23;;;;;;;;;;5050975;28;20211;-60
2022/03/01 08:05:14;;;;;;;17.70;11.77;;;;;;;;;;5050944;28;20211;-61
2022/03/01 08:07:39;;;;;;;17.60;11.70;;;;;;;;;;5049483;28;20213;-61
2022/03/01 08:10:05;;;;;;;18.07;11.23;;;;;;;;;;5049293;28;20215;-64
2022/03/01 08:12:30;;;;;;;19.17;13.87;;;;;;;;;;5051774;28;20218;-61
2022/03/01 08:14:55;;;;;;;21.83;14.05;;;;;;;;;;5051479;28;20242;-61
2022/03/01 08:17:21;;;;;;;20.10;14.03;;;;;;;;;;5051772;28;20535;-61
2022/03/01 08:19:46;;;;;;;20.63;11.80;;;;;;;;;;5051944;28;20344;-60
2022/03/01 08:22:12;;;;;;;18.43;11.70;;;;;;;;;;5050753;28;20233;-61
2022/03/01 08:24:37;;;;;;;18.85;11.15;;;;;;;;;;5051526;28;20264;-60
2022/03/01 08:27:03;;;;;;;19.33;12.15;;;;;;;;;;5051496;28;20218;-60
2022/03/01 08:29:29;;;;;;;18.17;12.50;;;;;;;;;;5051387;28;20214;-60
2022/03/01 08:31:54;;;;;;;16.80;11.23;;;;;;;;;;5051919;28;20229;-60
2022/03/01 08:34:19;;;;;;;15.63;10.83;;;;;;;;;;5033823;28;20223;-60
2022/03/01 08:36:45;;;;;;;16.00;11.07;;;;;;;;;;5054801;28;20215;-60
2022/03/01 08:39:10;;;;;;;17.70;11.40;;;;;;;;;;5054830;28;20203;-60
2022/03/01 08:41:35;;;;;;;18.37;11.53;;;;;;;;;;5056200;28;20241;-61
2022/03/01 08:44:00;;;;;;;21.40;11.20;;;;;;;;;;5054582;28;20215;-61
2022/03/01 08:46:26;;;;;;;19.80;12.33;;;;;;;;;;5048915;28;20608;-59
2022/03/01 08:48:53;;;;;;;17.67;11.98;;;;;;;;;;5036331;28;20292;-58
2022/03/01 08:51:21;;;;;;;20.70;11.82;;;;;;;;;;5034889;28;20238;-58
2022/03/01 08:53:46;;;;;;;17.97;11.77;;;;;;;;;;5040381;28;20326;-57
2022/03/01 08:56:14;;;;;;;18.95;10.85;;;;;;;;;;5054626;28;20314;-60
2022/03/01 08:58:39;;;;;;;21.38;12.23;;;;;;;;;;5055730;28;20215;-61
2022/03/01 09:01:04;;;;;;;19.67;12.77;;;;;;;;;;5058481;28;20210;-59
2022/03/01 09:03:30;;;;;;;20.43;11.80;;;;;;;;;;5075145;28;20202;-59
2022/03/01 09:05:55;;;;;;;20.13;12.65;;;;;;;;;;5075301;28;20293;-59
2022/03/01 09:08:20;;;;;;;21.47;12.30;;;;;;;;;;5074890;28;20229;-59
2022/03/01 09:10:46;;;;;;;19.88;11.82;;;;;;;;;;5074428;28;20703;-59
2022/03/01 09:13:11;;;;;;;18.65;11.63;;;;;;;;;;5075086;28;20264;-59
2022/03/01 09:15:36;;;;;;;18.00;12.43;;;;;;;;;;5075537;28;20633;-59
2022/03/01 09:18:02;;;;;;;18.27;12.00;;;;;;;;;;5074246;28;20210;-62
2022/03/01 09:20:27;;;;;;;16.90;11.90;;;;;;;;;;5057478;28;20218;-62
2022/03/01 09:22:53;;;;;;;20.00;11.87;;;;;;;;;;5075094;28;20661;-62
2022/03/01 09:25:18;;;;;;;18.33;11.63;;;;;;;;;;5073820;28;20215;-62
2022/03/01 09:27:44;;;;;;;19.55;12.02;;;;;;;;;;5075450;28;20206;-62
2022/03/01 09:30:09;;;;;;;17.33;12.02;;;;;;;;;;5074607;28;20259;-62
2022/03/01 09:32:34;;;;;;;18.42;10.88;;;;;;;;;;5074260;28;20232;-62
2022/03/01 09:35:00;;;;;;;18.40;12.25;;;;;;;;;;5075052;28;20214;-62
2022/03/01 09:37:25;;;;;;;20.55;12.90;;;;;;;;;;5074221;28;20300;-62
2022/03/01 09:39:50;;;;;;;16.98;11.65;;;;;;;;;;5073831;28;20214;-62
2022/03/01 09:42:16;;;;;;;18.38;11.35;;;;;;;;;;5074432;28;20218;-59
2022/03/01 09:44:41;;;;;;;17.58;12.38;;;;;;;;;;5074978;28;20238;-62
2022/03/01 09:47:07;;;;;;;20.05;11.60;;;;;;;;;;5055740;28;20218;-62
2022/03/01 09:49:32;;;;;;;18.08;11.75;;;;;;;;;;5074778;28;20217;-62
2022/03/01 09:51:57;;;;;;;14.88;11.13;;;;;;;;;;5074305;28;20302;-62
2022/03/01 09:54:23;;;;;;;18.95;11.93;;;;;;;;;;5055336;28;20231;-62
2022/03/01 09:56:48;;;;;;;16.55;11.38;;;;;;;;;;5074555;28;20206;-60
2022/03/01 09:59:13;;;;;;;17.13;11.63;;;;;;;;;;5074076;28;20645;-60
2022/03/01 10:01:46;;;;;;;17.02;11.23;;;;;;;;;;5073880;28;20215;-59
2022/03/01 10:04:11;;;;;;;16.63;11.20;;;;;;;;;;5074144;28;20733;-59
2022/03/01 10:06:39;;;;;;;16.98;11.30;;;;;;;;;;5073887;28;20344;-59
2022/03/01 10:09:10;;;;;;;16.60;11.23;;;;;;;;;;5073766;28;20206;-62
2022/03/01 10:11:36;;;;;;;20.65;11.43;;;;;;;;;;5074306;28;20219;-62
2022/03/01 10:14:01;;;;;;;15.38;11.27;;;;;;;;;;5073204;28;20209;-62
2022/03/01 10:16:29;;;;;;;17.45;12.07;;;;;;;;;;5074538;28;20209;-62
2022/03/01 10:18:55;;;;;;;16.63;11.30;;;;;;;;;;5074489;28;20207;-62
2022/03/01 10:21:22;;;;;;;16.20;11.45;;;;;;;;;;5072885;28;20214;-62
2022/03/01 10:23:48;;;;;;;17.08;11.55;;;;;;;;;;5073882;28;20256;-60
2022/03/01 10:26:14;;;;;;;17.65;11.57;;;;;;;;;;5073700;28;20214;-59
2022/03/01 10:28:40;;;;;;;17.98;11.40;;;;;;;;;;5072885;28;20231;-58
2022/03/01 10:31:13;;;;;;;16.50;11.60;;;;;;;;;;5073603;28;20473;-59
2022/03/01 10:33:40;;;;;;;16.67;11.02;;;;;;;;;;5074101;28;20280;-58
2022/03/01 10:36:05;;;;;;;19.00;11.18;;;;;;;;;;5072818;28;20206;-58
2022/03/01 10:38:31;;;;;;;16.00;10.88;;;;;;;;;;5072266;28;20210;-60
2022/03/01 10:40:57;;;;;;;16.30;11.35;;;;;;;;;;5074150;28;20217;-61
2022/03/01 10:43:23;;;;;;;15.18;11.18;;;;;;;;;;5072600;28;20696;-61
2022/03/01 10:45:49;;;;;;;16.33;10.93;;;;;;;;;;5073643;28;20727;-61
2022/03/01 10:48:27;;;;;;;18.20;10.75;;;;;;;;;;5073318;28;20202;-58
2022/03/01 10:50:57;;;;;;;18.48;11.57;;;;;;;;;;5072860;28;20241;-61
2022/03/01 10:53:29;;;;;;;14.88;10.27;;;;;;;;;;5070787;28;20218;-61
2022/03/01 10:55:59;;;;;;;15.57;10.98;;;;;;;;;;5053183;28;20979;-61
2022/03/01 10:58:24;;;;;;;14.00;10.63;;;;;;;;;;5052469;28;20237;-61
2022/03/01 11:00:49;;;;;;;15.63;10.93;;;;;;;;;;5035671;28;20226;-59
2022/03/01 11:03:15;;;;;;;15.50;11.13;;;;;;;;;;5052275;28;20219;-58
2022/03/01 11:05:40;;;;;;;15.68;11.18;;;;;;;;;;5053578;28;20214;-61
2022/03/01 11:08:08;;;;;;;17.35;12.07;;;;;;;;;;5052737;28;20219;-61
2022/03/01 11:10:33;;;;;;;17.80;11.20;;;;;;;;;;5052404;28;20298;-61
2022/03/01 11:13:00;;;;;;;16.02;10.98;;;;;;;;;;5053140;28;20336;-61
2022/03/01 11:15:28;;;;;;;17.08;11.02;;;;;;;;;;5052912;28;20204;-61
2022/03/01 11:18:12;;;;;;;16.73;10.63;;;;;;;;;;5034706;28;20210;-61
2022/03/01 11:20:40;;;;;;;16.98;11.05;;;;;;;;;;5052910;28;20226;-60
2022/03/01 11:23:05;;;;;;;15.60;10.93;;;;;;;;;;5034872;28;20203;-61
2022/03/01 11:25:35;;;;;;;16.88;11.52;;;;;;;;;;5052412;28;20261;-58
2022/03/01 11:28:01;;;;;;;15.77;11.05;;;;;;;;;;5052882;28;20579;-60
2022/03/01 11:30:27;;;;;;;17.60;11.20;;;;;;;;;;5052845;28;20686;-61
2022/03/01 11:32:54;;;;;;;14.60;10.43;;;;;;;;;;5051992;28;20219;-60
2022/03/01 11:35:20;;;;;;;15.13;10.98;;;;;;;;;;5052666;28;20290;-60
2022/03/01 11:37:46;;;;;;;17.63;11.10;;;;;;;;;;5052353;28;20207;-60
2022/03/01 11:40:22;;;;;;;17.30;10.80;;;;;;;;;;5051950;28;20574;-61
2022/03/01 11:42:48;;;;;;;15.73;11.60;;;;;;;;;;5050446;28;20443;-60
2022/03/01 11:45:14;;;;;;;15.95;11.32;;;;;;;;;;5050617;28;20203;-61
2022/03/01 11:47:39;;;;;;;16.75;10.80;;;;;;;;;;5052797;28;20230;-60
2022/03/01 11:50:12;;;;;;;15.45;11.13;;;;;;;;;;5052127;28;20199;-61
2022/03/01 11:52:47;;;;;;;17.88;11.65;;;;;;;;;;5051367;28;20706;-61
2022/03/01 11:55:13;;;;;;;16.10;11.60;;;;;;;;;;5069131;28;20237;-59
2022/03/01 11:57:38;;;;;;;16.27;11.55;;;;;;;;;;5072522;28;20209;-58
2022/03/01 12:00:03;;;;;;;15.45;11.50;;;;;;;;;;5071023;28;20637;-60
2022/03/01 12:02:29;;;;;;;17.38;11.85;;;;;;;;;;5072531;28;20214;-61
2022/03/01 12:04:55;;;;;;;19.20;11.85;;;;;;;;;;5054502;28;20215;-60
2022/03/01 12:07:21;;;;;;;17.38;11.38;;;;;;;;;;5070670;28;20214;-60
2022/03/01 12:09:53;;;;;;;18.38;11.57;;;;;;;;;;5071526;28;20210;-60
2022/03/01 12:12:19;;;;;;;17.45;11.57;;;;;;;;;;5053983;28;20222;-60
2022/03/01 12:14:52;;;;;;;18.20;11.70;;;;;;;;;;5053478;28;20226;-60
2022/03/01 12:17:19;;;;;;;17.65;11.98;;;;;;;;;;5071904;28;20214;-60
2022/03/01 12:19:44;;;;;;;17.63;11.63;;;;;;;;;;5072139;28;20215;-60
2022/03/01 12:22:12;;;;;;;19.80;11.95;;;;;;;;;;5070685;28;20263;-60
2022/03/01 12:24:38;;;;;;;16.40;11.35;;;;;;;;;;5072157;28;20279;-60
2022/03/01 12:27:03;;;;;;;14.80;11.02;;;;;;;;;;5054732;28;20662;-60
2022/03/01 12:29:30;;;;;;;19.20;12.07;;;;;;;;;;5052004;28;20230;-60
2022/03/01 12:31:56;;;;;;;14.93;12.20;;;;;;;;;;5034273;28;20215;-60
2022/03/01 12:34:23;;;;;;;18.50;11.57;;;;;;;;;;5050914;28;20273;-60
2022/03/01 12:36:48;;;;;;;16.17;12.02;;;;;;;;;;5051856;28;20256;-60
2022/03/01 12:39:14;;;;;;;15.57;11.60;;;;;;;;;;5051639;28;20679;-60
2022/03/01 12:41:39;;;;;;;16.52;11.63;;;;;;;;;;5051378;28;20214;-57
2022/03/01 12:44:05;;;;;;;17.73;11.93;;;;;;;;;;5053935;28;20207;-57
2022/03/01 12:46:32;;;;;;;18.15;12.07;;;;;;;;;;5072087;28;20673;-58
2022/03/01 12:48:57;;;;;;;16.77;11.85;;;;;;;;;;5071295;28;20527;-57
2022/03/01 12:51:23;;;;;;;15.70;11.57;;;;;;;;;;5053219;28;20229;-60
2022/03/01 12:53:50;;;;;;;17.35;11.60;;;;;;;;;;5071833;28;20222;-60
2022/03/01 12:56:22;;;;;;;18.40;12.20;;;;;;;;;;5070994;28;20214;-60
2022/03/01 12:58:47;;;;;;;17.75;11.82;;;;;;;;;;5071806;28;20289;-57
2022/03/01 13:01:12;;;;;;;18.60;12.05;;;;;;;;;;5043633;28;20234;-58
2022/03/01 13:03:38;;;;;;;17.92;11.75;;;;;;;;;;5051232;28;20290;-57
2022/03/01 13:06:04;;;;;;;19.40;12.40;;;;;;;;;;5051100;28;20221;-58
2022/03/01 13:08:31;;;;;;;16.33;11.20;;;;;;;;;;5051920;28;20294;-58
2022/03/01 13:10:56;;;;;;;18.17;11.77;;;;;;;;;;5050688;28;20222;-58
2022/03/01 13:13:22;;;;;;;15.15;11.75;;;;;;;;;;5051405;28;20210;-58
2022/03/01 13:15:47;;;;;;;17.60;12.07;;;;;;;;;;5057571;28;20301;-57
2022/03/01 13:18:12;;;;;;;17.48;11.82;;;;;;;;;;5070035;28;20264;-58
2022/03/01 13:20:38;;;;;;;18.00;11.88;;;;;;;;;;5070983;28;20219;-57
2022/03/01 13:23:04;;;;;;;17.15;11.93;;;;;;;;;;5074105;28;20214;-58
2022/03/01 13:25:30;;;;;;;17.85;11.68;;;;;;;;;;5074291;28;20289;-57
2022/03/01 13:27:55;;;;;;;17.50;11.80;;;;;;;;;;5075255;28;20263;-57
2022/03/01 13:30:22;;;;;;;15.35;10.13;;;;;;;;;;5053390;28;20215;-58
2022/03/01 13:32:47;;;;;;;17.65;12.02;;;;;;;;;;5055368;28;20250;-58
2022/03/01 13:35:12;;;;;;;17.48;11.93;;;;;;;;;;5054634;28;20674;-58
2022/03/01 13:37:40;;;;;;;18.92;12.35;;;;;;;;;;5053993;28;20563;-58
2022/03/01 13:40:06;;;;;;;19.73;12.13;;;;;;;;;;5054566;28;20206;-58
2022/03/01 13:42:32;;;;;;;18.95;12.35;;;;;;;;;;5055109;28;20238;-58
2022/03/01 13:44:57;;;;;;;19.40;12.38;;;;;;;;;;5054109;28;20206;-58
2022/03/01 13:47:25;;;;;;;17.60;12.05;;;;;;;;;;5054025;28;20285;-58
2022/03/01 13:49:53;;;;;;;20.40;12.18;;;;;;;;;;5035122;28;20211;-58
2022/03/01 13:52:19;;;;;;;17.20;12.73;;;;;;;;;;5051037;28;20230;-58
2022/03/01 13:55:00;;;;;;;19.30;11.77;;;;;;;;;;5052693;28;20250;-58
2022/03/01 13:57:26;;;;;;;15.93;11.65;;;;;;;;;;5052388;28;20298;-58
2022/03/01 13:59:56;;;;;;;21.08;12.23;;;;;;;;;;5051788;28;20211;-58
2022/03/01 14:02:21;;;;;;;17.45;12.23;;;;;;;;;;5052160;28;20215;-58
2022/03/01 14:04:46;;;;;;;17.55;12.20;;;;;;;;;;5052610;28;20203;-58
2022/03/01 14:07:11;;;;;;;15.93;12.13;;;;;;;;;;5032553;28;20207;-59